Terminal Aerodrome Forecast
Issued by NWS

Home | Current Version | Previous Version | Text Only | Print | Product List | Glossary On
Versions: 1 2 3 4 5 6 7 8 9 10 11 12 13 14 15 16 17 18 19 20 21 22 23 24 25 26 27 28 29 30 31 32 33 34 35 36 37 38 39 40 41 42 43 44 45 46 47 48 49 50
000
FTUS45 KGJT 281738
TAFASE
TAF
KASE 281738Z 2818/0118 VRB02KT P6SM SCT100 BKN150
     FM282000 06005KT P6SM VCSH SCT060 BKN100
      TEMPO 2821/2824 4SM -SN BKN025 OVC040
     FM010000 19004KT 2SM -SN BKN015 OVC040
     FM010600 VRB03KT 1/2SM SN FG BKN005 OVC012
     FM011400 17004KT 5SM -SN BR OVC025=

USA.gov is the U.S. government's official web portal to all federal, state and local government web resources and services.